Ilkley, United Kingdom
Current Conditions -  °F | °C
As of 1:50 AM on Thursday 27 Nov 2014 (Local Time) from EGNM Reporting Station
Haze Haze  
Wind Chill: 41°   Ceiling: 100
Heat Index: 41°   Visibility: 1.2mi
Dew Point: 41°   Wind: 3mph
Humidity: 100%   Direction: 360°N
Pressure: 29.71"   Gusts: NA
Location:  53.92°N, 1.82°W
Report Text: EGNM 270150Z 36003KT 2000 BR OVC001 05/05 Q1006
Loading
Personal Weather Stations






























Interactive Weather Map New forecast layout! Learn more

10-Day Weather Forecast

Advertisements
Track Severe Weather on mobile